createdAt,value
2019-03-20T00:03:51.127Z,5.40
2019-03-20T00:13:56.200Z,5.30
2019-03-20T00:24:01.511Z,5.30
2019-03-20T00:34:07.016Z,5.30
2019-03-20T00:44:12.415Z,5.20
2019-03-20T00:54:17.796Z,5.10
2019-03-20T01:04:23.016Z,5.10
2019-03-20T01:14:28.386Z,5.10
2019-03-20T01:24:33.446Z,4.80
2019-03-20T01:34:38.504Z,4.80
2019-03-20T01:44:43.940Z,4.60
2019-03-20T01:54:49.010Z,4.50
2019-03-20T02:04:54.067Z,4.50
2019-03-20T02:14:59.230Z,4.60
2019-03-20T02:25:04.758Z,4.50
2019-03-20T02:35:10.270Z,4.40
2019-03-20T02:45:15.625Z,4.30
2019-03-20T02:55:20.933Z,4.10
2019-03-20T03:05:25.977Z,4.00
2019-03-20T03:15:31.042Z,3.90
2019-03-20T03:25:36.210Z,3.80
2019-03-20T03:35:41.326Z,3.90
2019-03-20T03:45:46.493Z,4.00
2019-03-20T03:55:51.569Z,3.90
2019-03-20T04:05:57.238Z,3.80
2019-03-20T04:16:02.528Z,3.70
2019-03-20T04:26:07.711Z,3.70
2019-03-20T04:36:12.775Z,3.60
2019-03-20T04:46:18.203Z,3.40
2019-03-20T04:56:23.656Z,3.40
2019-03-20T05:06:28.723Z,3.50
2019-03-20T05:16:34.147Z,3.50
2019-03-20T05:26:39.238Z,3.50
2019-03-20T05:36:44.604Z,3.50
2019-03-20T05:46:50.446Z,3.40
2019-03-20T05:56:55.549Z,3.40
2019-03-20T06:07:00.967Z,3.40
2019-03-20T06:17:06.070Z,3.50
2019-03-20T06:27:11.595Z,3.60
2019-03-20T06:37:16.751Z,3.70
2019-03-20T06:47:22.539Z,3.90
2019-03-20T06:57:31.571Z,4.20
2019-03-20T07:07:44.354Z,4.40
2019-03-20T07:17:49.366Z,4.70
2019-03-20T07:27:54.657Z,5.00
2019-03-20T07:37:59.935Z,5.30
2019-03-20T07:48:04.995Z,5.60
2019-03-20T07:58:10.311Z,5.90
2019-03-20T08:08:15.355Z,6.20
2019-03-20T08:18:20.409Z,6.40
2019-03-20T08:28:25.468Z,6.80
2019-03-20T08:38:30.528Z,7.20
2019-03-20T08:48:35.607Z,7.60
2019-03-20T08:58:40.909Z,7.90
2019-03-20T09:08:45.971Z,8.30
2019-03-20T09:18:51.052Z,8.40
2019-03-20T09:28:56.187Z,8.70
2019-03-20T09:39:01.267Z,8.90
2019-03-20T09:49:06.563Z,9.20
2019-03-20T09:59:11.649Z,9.60
2019-03-20T10:09:16.799Z,9.80
2019-03-20T10:19:22.952Z,10.10
2019-03-20T10:29:29.096Z,10.40
2019-03-20T10:39:34.220Z,11.00
2019-03-20T10:49:39.313Z,12.10
2019-03-20T10:59:44.383Z,14.40
2019-03-20T11:09:49.663Z,16.30
2019-03-20T11:19:56.327Z,18.20
2019-03-20T11:30:01.621Z,19.20
2019-03-20T11:40:10.692Z,20.60
2019-03-20T11:50:18.344Z,21.40
2019-03-20T12:00:23.556Z,22.40
2019-03-20T12:10:28.851Z,23.20
2019-03-20T12:20:34.239Z,23.90
2019-03-20T12:30:39.705Z,25.00
2019-03-20T12:40:44.833Z,25.50
2019-03-20T12:50:50.036Z,26.10
2019-03-20T13:00:55.164Z,26.70
2019-03-20T13:11:00.254Z,27.20
2019-03-20T13:21:05.363Z,27.40
2019-03-20T13:31:13.875Z,28.00
2019-03-20T13:41:19.137Z,28.80
2019-03-20T13:51:24.290Z,28.20
2019-03-20T14:01:29.361Z,29.60
2019-03-20T14:11:34.771Z,29.90
2019-03-20T14:21:39.870Z,30.20
2019-03-20T14:31:45.980Z,30.90
2019-03-20T14:41:53.431Z,29.90
2019-03-20T14:51:58.602Z,30.50
2019-03-20T15:02:03.695Z,30.60
2019-03-20T15:12:08.794Z,31.80
2019-03-20T15:22:17.053Z,34.00
2019-03-20T15:32:22.558Z,36.60
2019-03-20T15:42:27.770Z,36.00
2019-03-20T15:52:32.919Z,33.00
2019-03-20T16:02:38.315Z,29.00
2019-03-20T16:12:43.391Z,29.30
2019-03-20T16:22:49.515Z,28.80
2019-03-20T16:32:56.526Z,24.90
2019-03-20T16:43:01.926Z,21.50
2019-03-20T16:53:07.133Z,19.80
2019-03-20T17:03:12.229Z,18.80
2019-03-20T17:13:17.310Z,17.70
2019-03-20T17:23:22.406Z,16.70
2019-03-20T17:33:28.142Z,15.70
2019-03-20T17:43:33.282Z,15.00
2019-03-20T17:53:38.391Z,14.50
2019-03-20T18:03:43.568Z,13.80
2019-03-20T18:13:48.646Z,13.20
2019-03-20T18:23:54.091Z,12.50
2019-03-20T18:33:59.697Z,12.20
2019-03-20T18:44:04.879Z,11.80
2019-03-20T18:54:10.302Z,11.70
2019-03-20T19:04:15.488Z,11.60
2019-03-20T19:14:20.659Z,11.10
2019-03-20T19:24:25.883Z,10.80
2019-03-20T19:34:31.284Z,10.60
2019-03-20T19:44:36.672Z,10.20
2019-03-20T19:54:42.058Z,9.80
2019-03-20T20:04:47.131Z,9.70
2019-03-20T20:14:52.441Z,9.50
2019-03-20T20:24:57.550Z,9.30
2019-03-20T20:35:02.647Z,9.20
2019-03-20T20:45:08.692Z,9.00
2019-03-20T20:55:14.001Z,8.90
2019-03-20T21:05:19.083Z,9.00
2019-03-20T21:15:41.577Z,8.90
2019-03-20T21:25:47.666Z,8.90
2019-03-20T21:36:29.078Z,8.90
2019-03-20T21:47:25.115Z,8.80
2019-03-20T21:58:10.454Z,8.80
2019-03-20T22:08:16.071Z,8.70
2019-03-20T22:19:10.201Z,8.80
2019-03-20T22:29:25.871Z,8.70
2019-03-20T22:40:09.011Z,8.70
2019-03-20T22:50:57.643Z,8.80
2019-03-20T23:01:03.292Z,8.90
2019-03-20T23:11:09.122Z,9.00
2019-03-20T23:21:14.815Z,9.10
2019-03-20T23:31:20.410Z,9.10
2019-03-20T23:41:26.251Z,9.20
2019-03-20T23:51:31.897Z,9.30
